This is the latest recevied weather packets stored in our database for station/object EA3DJ-10. If no packets are shown the sender has not sent any weather packets the latest 10 day(s).
| Time | Temp. | Humidity | Pressure | Rain* | Wind** | Luminosity | Snow |
|---|---|---|---|---|---|---|---|
| 1787993952 | 27.22° C | 34% | 1020.8 hPa | - | - | - | - |
| 1787992752 | 27.22° C | 34% | 1020.7 hPa | - | - | - | - |
| 1787991552 | 27.22° C | 34% | 1020.5 hPa | - | - | - | - |
| 1787990351 | 27.22° C | 33% | 1020.3 hPa | - | - | - | - |
| 1787989151 | 27.22° C | 34% | 1020.3 hPa | - | - | - | - |
| 1787987951 | 27.22° C | 34% | 1020.2 hPa | - | - | - | - |
| 1787986751 | 27.22° C | 34% | 1020.1 hPa | - | - | - | - |
| 1787985551 | 27.22° C | 33% | 1020 hPa | - | - | - | - |
| 1787984350 | 27.22° C | 33% | 1019.9 hPa | - | - | - | - |
| 1787983150 | 27.22° C | 33% | 1020.1 hPa | - | - | - | - |
| 1787981950 | 27.22° C | 33% | 1020 hPa | - | - | - | - |
| 1787980750 | 27.22° C | 33% | 1019.9 hPa | - | - | - | - |
| 1787979546 | 27.22° C | 33% | 1019.5 hPa | - | - | - | - |
| 1787978346 | 27.22° C | 32% | 1019.4 hPa | - | - | - | - |
| 1787977146 | 27.22° C | 33% | 1019.3 hPa | - | - | - | - |
| 1787975946 | 27.22° C | 33% | 1019.3 hPa | - | - | - | - |
| 1787974746 | 27.22° C | 33% | 1019.3 hPa | - | - | - | - |
| 1787973546 | 27.22° C | 34% | 1019.2 hPa | - | - | - | - |
| 1787972346 | 27.22° C | 34% | 1019.4 hPa | - | - | - | - |
| 1787971146 | 27.78° C | 34% | 1019.4 hPa | - | - | - | - |
| 1787969946 | 27.78° C | 39% | 1019.7 hPa | - | - | - | - |
| 1787968745 | 32.22° C | 27% | 1019.6 hPa | - | - | - | - |
| 1787967545 | 31.67° C | 29% | 1019.7 hPa | - | - | - | - |
| 1787966345 | 32.22° C | 24% | 1019.9 hPa | - | - | - | - |
| 1787965145 | 31.11° C | 27% | 1020.2 hPa | - | - | - | - |
* Rain since midnight (hover to see other rain measurements)
** Current wind speed in m/s (hover to see current wind gust speed)